Time;durP1;ratioP1;P1;durP2;ratioP2;P2;SDS_P1;SDS_P2;PMS_P1;PMS_P2;Temp;Humidity;BMP_temperature;BMP_pressure;BME280_temperature;BME280_humidity;BME280_pressure;Samples;Min_cycle;Max_cycle;Signal;HPM_P1;HPM_P2
2022/07/06 00:01:18;;;;;;;5.03;2.60;;;;;;;11.96;89.85;102522.75;5027324;28;20033;-60
2022/07/06 00:03:43;;;;;;;4.20;2.60;;;;;;;11.87;90.55;102524.00;5017944;28;20083;-61
2022/07/06 00:06:08;;;;;;;3.83;2.95;;;;;;;11.81;90.52;102517.59;5023251;28;20029;-60
2022/07/06 00:08:34;;;;;;;3.33;2.83;;;;;;;11.76;91.38;102520.84;5027677;28;20041;-60
2022/07/06 00:11:00;;;;;;;3.13;2.50;;;;;;;11.70;91.48;102525.72;5027520;28;20451;-60
2022/07/06 00:13:25;;;;;;;4.40;2.95;;;;;;;11.68;91.23;102522.13;5027278;28;20037;-60
2022/07/06 00:15:51;;;;;;;4.50;3.42;;;;;;;11.64;92.05;102526.25;5027442;28;20033;-60
2022/07/06 00:18:16;;;;;;;4.00;2.78;;;;;;;11.59;91.94;102526.81;5027502;28;20053;-60
2022/07/06 00:20:41;;;;;;;3.90;2.97;;;;;;;11.57;92.55;102525.84;5026958;28;20022;-59
2022/07/06 00:23:06;;;;;;;4.97;2.88;;;;;;;11.56;92.16;102537.94;5026991;28;20334;-61
2022/07/06 00:25:32;;;;;;;3.72;2.65;;;;;;;11.52;92.54;102534.28;5027179;28;20135;-61
2022/07/06 00:27:57;;;;;;;5.53;3.00;;;;;;;11.47;92.89;102538.34;5027653;28;20087;-61
2022/07/06 00:30:22;;;;;;;4.18;3.03;;;;;;;11.42;93.52;102532.00;5026724;28;20461;-60
2022/07/06 00:32:48;;;;;;;5.10;2.70;;;;;;;11.43;93.24;102530.28;5015662;28;20021;-60
2022/07/06 00:35:13;;;;;;;4.43;3.10;;;;;;;11.39;93.04;102529.22;5024755;28;20025;-60
2022/07/06 00:37:39;;;;;;;4.60;3.00;;;;;;;11.35;94.21;102529.88;5026887;28;20026;-60
2022/07/06 00:40:05;;;;;;;4.72;3.15;;;;;;;11.28;94.42;102537.28;5027021;28;20052;-60
2022/07/06 00:42:39;;;;;;;3.85;3.53;;;;;;;11.23;94.90;102527.47;5026880;28;20018;-60
2022/07/06 00:45:05;;;;;;;4.00;2.72;;;;;;;11.18;95.89;102532.41;5026489;28;20026;-60
2022/07/06 00:47:30;;;;;;;3.67;3.13;;;;;;;11.16;95.41;102534.00;5027229;28;20018;-59
2022/07/06 00:50:13;;;;;;;4.43;4.03;;;;;;;11.11;95.32;102532.84;5027352;28;20048;-60
2022/07/06 00:52:39;;;;;;;4.57;3.58;;;;;;;11.11;95.97;102535.44;5027068;28;20036;-60
2022/07/06 00:55:05;;;;;;;4.55;3.45;;;;;;;11.16;96.16;102531.41;5027299;28;20548;-60
2022/07/06 00:57:30;;;;;;;5.03;3.70;;;;;;;11.13;95.60;102526.06;5027087;28;20036;-61
2022/07/06 00:59:56;;;;;;;6.30;3.58;;;;;;;11.09;95.74;102529.28;5026709;28;20496;-60
2022/07/06 01:02:22;;;;;;;5.00;3.55;;;;;;;11.04;96.13;102527.31;5026847;28;20038;-60
2022/07/06 01:04:48;;;;;;;4.38;3.38;;;;;;;11.01;96.15;102521.94;5013485;28;20512;-60
2022/07/06 01:07:13;;;;;;;5.55;3.60;;;;;;;10.97;96.01;102520.00;5026905;28;20029;-60
2022/07/06 01:09:39;;;;;;;3.92;3.53;;;;;;;11.00;96.07;102527.97;5026357;28;20082;-61
2022/07/06 01:12:04;;;;;;;3.85;3.40;;;;;;;10.96;96.92;102520.78;5026346;28;20670;-59
2022/07/06 01:14:31;;;;;;;6.00;4.00;;;;;;;10.94;96.44;102532.78;5026876;28;20108;-59
2022/07/06 01:16:56;;;;;;;6.03;4.18;;;;;;;10.88;97.50;102519.47;5026757;28;20039;-60
2022/07/06 01:19:22;;;;;;;4.28;3.72;;;;;;;10.85;97.76;102516.72;5030752;28;20021;-59
2022/07/06 01:21:47;;;;;;;5.05;3.70;;;;;;;10.80;97.73;102517.31;5030273;28;20488;-61
2022/07/06 01:24:13;;;;;;;4.93;3.95;;;;;;;10.79;97.84;102519.84;5031212;28;20490;-61
2022/07/06 01:26:38;;;;;;;4.43;3.90;;;;;;;10.75;98.20;102523.94;5031133;28;20038;-60
2022/07/06 01:29:03;;;;;;;4.15;3.63;;;;;;;10.72;98.56;102523.75;5030108;28;20029;-60
2022/07/06 01:31:29;;;;;;;4.05;3.65;;;;;;;10.70;99.19;102525.38;5030625;28;20028;-60
2022/07/06 01:33:56;;;;;;;7.28;3.38;;;;;;;10.69;98.87;102521.88;5030880;28;20029;-60
2022/07/06 01:36:22;;;;;;;6.05;3.53;;;;;;;10.69;99.40;102524.47;5030502;28;20033;-60
2022/07/06 01:38:56;;;;;;;4.13;3.70;;;;;;;10.68;99.41;102516.59;5030149;28;20041;-59
2022/07/06 01:41:22;;;;;;;4.65;3.55;;;;;;;10.62;99.59;102527.50;5030084;28;20207;-60
2022/07/06 01:43:47;;;;;;;3.78;3.47;;;;;;;10.57;99.87;102519.47;5030287;28;20401;-61
2022/07/06 01:46:13;;;;;;;5.22;3.60;;;;;;;10.54;100.00;102524.47;5030113;28;20033;-60
2022/07/06 01:48:39;;;;;;;5.80;3.75;;;;;;;10.50;100.00;102522.50;5030188;28;20033;-60
2022/07/06 01:51:05;;;;;;;3.95;3.25;;;;;;;10.51;100.00;102519.09;5029865;28;20025;-60
2022/07/06 01:53:30;;;;;;;4.18;3.47;;;;;;;10.48;100.00;102524.09;5030656;28;20036;-61
2022/07/06 01:55:56;;;;;;;4.70;3.75;;;;;;;10.45;100.00;102513.53;5030341;28;20631;-60
2022/07/06 01:58:21;;;;;;;4.55;3.63;;;;;;;10.44;100.00;102514.31;5029896;28;20159;-60
2022/07/06 02:00:47;;;;;;;3.92;3.15;;;;;;;10.46;100.00;102520.50;5029759;28;20021;-60
2022/07/06 02:03:12;;;;;;;4.40;3.47;;;;;;;10.41;100.00;102524.50;5024427;28;20598;-61
2022/07/06 02:05:37;;;;;;;5.15;3.50;;;;;;;10.39;100.00;102528.69;5021800;28;20037;-61
2022/07/06 02:08:03;;;;;;;4.97;3.60;;;;;;;10.33;100.00;102524.94;5029234;28;20060;-59
2022/07/06 02:10:28;;;;;;;3.92;3.45;;;;;;;10.30;100.00;102522.19;5030407;28;20026;-60
2022/07/06 02:12:53;;;;;;;6.18;4.13;;;;;;;10.29;100.00;102528.16;5030093;28;20033;-60
2022/07/06 02:15:18;;;;;;;4.40;3.90;;;;;;;10.30;100.00;102529.03;5030246;28;20029;-60
2022/07/06 02:17:44;;;;;;;5.10;4.60;;;;;;;10.31;100.00;102520.47;5029819;28;20055;-60
2022/07/06 02:20:09;;;;;;;4.70;3.70;;;;;;;10.36;100.00;102528.53;5029019;28;20025;-60
2022/07/06 02:22:35;;;;;;;4.50;3.80;;;;;;;10.35;100.00;102529.31;5029617;28;20075;-60
2022/07/06 02:25:00;;;;;;;4.75;3.83;;;;;;;10.31;100.00;102523.06;5029500;28;20333;-60
2022/07/06 02:27:26;;;;;;;5.57;4.10;;;;;;;10.26;100.00;102530.56;5029890;28;20033;-61
2022/07/06 02:29:51;;;;;;;4.45;4.05;;;;;;;10.24;100.00;102519.19;5029124;28;20029;-60
2022/07/06 02:32:16;;;;;;;5.50;4.75;;;;;;;10.24;100.00;102523.47;5029521;28;20686;-60
2022/07/06 02:34:42;;;;;;;6.30;3.78;;;;;;;10.20;100.00;102527.59;5028919;28;20083;-60
2022/07/06 02:37:07;;;;;;;4.40;4.00;;;;;;;10.18;100.00;102524.91;5024525;28;20524;-60
2022/07/06 02:39:32;;;;;;;7.75;4.60;;;;;;;10.13;100.00;102518.56;5020205;28;20077;-61
2022/07/06 02:41:57;;;;;;;5.25;4.00;;;;;;;10.08;100.00;102523.47;5028942;28;20029;-61
2022/07/06 02:44:23;;;;;;;5.15;3.65;;;;;;;10.07;100.00;102519.06;5029292;28;20504;-61
2022/07/06 02:46:48;;;;;;;4.75;4.35;;;;;;;10.04;100.00;102520.56;5027343;28;20033;-60
2022/07/06 02:49:13;;;;;;;4.97;4.47;;;;;;;10.03;100.00;102523.97;5029083;28;20076;-61
2022/07/06 02:51:39;;;;;;;5.45;4.95;;;;;;;10.02;100.00;102520.47;5029221;28;20047;-61
2022/07/06 02:54:04;;;;;;;5.57;4.68;;;;;;;9.98;100.00;102515.94;5028688;28;20496;-60
2022/07/06 02:56:30;;;;;;;4.60;4.18;;;;;;;9.96;100.00;102517.53;5029001;28;20121;-60
2022/07/06 02:58:55;;;;;;;5.25;4.75;;;;;;;9.95;100.00;102526.09;5029123;28;20079;-60
2022/07/06 03:01:20;;;;;;;6.15;5.10;;;;;;;9.96;100.00;102522.72;5029168;28;20457;-61
2022/07/06 03:03:46;;;;;;;5.38;4.97;;;;;;;9.95;100.00;102531.25;5018213;28;20383;-60
2022/07/06 03:06:11;;;;;;;6.15;5.03;;;;;;;9.94;100.00;102530.38;5025225;28;20066;-60
2022/07/06 03:08:36;;;;;;;5.68;5.18;;;;;;;9.92;100.00;102526.81;5028969;28;20094;-60
2022/07/06 03:11:02;;;;;;;6.85;4.95;;;;;;;9.92;100.00;102528.50;5028660;28;20128;-60
2022/07/06 03:13:28;;;;;;;7.10;5.70;;;;;;;9.93;100.00;102526.00;5028172;28;20040;-59
2022/07/06 03:15:53;;;;;;;5.88;5.38;;;;;;;9.95;100.00;102527.00;5027223;28;20037;-60
2022/07/06 03:18:19;;;;;;;6.03;5.38;;;;;;;9.96;100.00;102533.97;5023245;28;20552;-60
2022/07/06 03:20:44;;;;;;;8.02;5.75;;;;;;;9.96;100.00;102533.97;5017509;28;20025;-60
2022/07/06 03:23:09;;;;;;;7.15;5.20;;;;;;;9.97;100.00;102540.03;5026816;28;20330;-61
2022/07/06 03:25:35;;;;;;;6.35;5.50;;;;;;;9.98;100.00;102541.84;5027098;28;20104;-61
2022/07/06 03:28:00;;;;;;;6.95;6.25;;;;;;;10.02;100.00;102538.59;5027257;28;20067;-61
2022/07/06 03:30:25;;;;;;;7.30;6.07;;;;;;;10.02;100.00;102541.19;5026060;28;20084;-60
2022/07/06 03:32:51;;;;;;;6.65;6.00;;;;;;;9.99;100.00;102538.44;5027603;28;20033;-60
2022/07/06 03:35:16;;;;;;;7.55;6.03;;;;;;;9.99;100.00;102542.72;5027641;28;20032;-60
2022/07/06 03:37:41;;;;;;;7.05;6.18;;;;;;;9.97;100.00;102540.03;5028264;28;20025;-60
2022/07/06 03:40:07;;;;;;;8.98;5.93;;;;;;;9.94;100.00;102538.16;5027363;28;20045;-60
2022/07/06 03:42:32;;;;;;;9.10;6.72;;;;;;;9.93;100.00;102532.88;5028077;28;20169;-60
2022/07/06 03:44:58;;;;;;;8.77;6.20;;;;;;;9.91;100.00;102535.34;5028169;28;20083;-60
2022/07/06 03:47:23;;;;;;;7.90;6.35;;;;;;;9.93;100.00;102533.75;5027493;28;20029;-60
2022/07/06 03:49:48;;;;;;;10.18;5.80;;;;;;;9.95;100.00;102528.66;5027990;28;20036;-60
2022/07/06 03:52:14;;;;;;;6.95;5.43;;;;;;;9.97;100.00;102537.44;5027905;28;20036;-59
2022/07/06 03:54:39;;;;;;;8.63;6.13;;;;;;;9.94;100.00;102535.56;5027915;28;20484;-60
2022/07/06 03:57:04;;;;;;;7.75;6.10;;;;;;;9.90;100.00;102537.84;5027410;28;20424;-60
2022/07/06 03:59:30;;;;;;;9.02;6.10;;;;;;;9.90;100.00;102537.84;5028326;28;20100;-60
2022/07/06 04:01:55;;;;;;;6.63;6.03;;;;;;;9.89;100.00;102536.97;5027778;28;20037;-60
2022/07/06 04:04:20;;;;;;;7.20;5.30;;;;;;;9.90;100.00;102537.84;5014090;28;20022;-61
2022/07/06 04:06:45;;;;;;;7.72;6.50;;;;;;;9.89;100.00;102533.50;5027937;28;20079;-61
2022/07/06 04:09:11;;;;;;;9.93;6.40;;;;;;;9.91;100.00;102539.66;5027997;28;20041;-61
2022/07/06 04:11:36;;;;;;;6.65;5.97;;;;;;;9.93;100.00;102533.75;5027733;28;20017;-61
2022/07/06 04:14:01;;;;;;;7.82;6.03;;;;;;;9.96;100.00;102533.06;5027714;28;20380;-60
2022/07/06 04:16:26;;;;;;;7.13;6.00;;;;;;;9.98;100.00;102531.47;5027640;28;20496;-60
2022/07/06 04:18:52;;;;;;;11.43;5.93;;;;;;;9.99;100.00;102527.16;5027867;28;20021;-60
2022/07/06 04:21:18;;;;;;;6.85;6.10;;;;;;;9.97;100.00;102527.06;5027221;28;20041;-60
2022/07/06 04:23:43;;;;;;;7.20;5.53;;;;;;;9.96;100.00;102527.88;5017224;28;20046;-59
2022/07/06 04:26:08;;;;;;;6.97;6.18;;;;;;;9.96;100.00;102522.72;5007970;28;20449;-61
2022/07/06 04:28:34;;;;;;;6.78;6.10;;;;;;;10.01;100.00;102515.22;5007491;28;20036;-60
2022/07/06 04:30:59;;;;;;;7.95;6.25;;;;;;;10.01;100.00;102521.28;5017839;28;20021;-60
2022/07/06 04:33:24;;;;;;;6.90;6.20;;;;;;;10.01;100.00;102521.28;5006578;28;20037;-60
2022/07/06 04:35:50;;;;;;;9.23;6.90;;;;;;;10.01;100.00;102520.38;5015981;28;20095;-60
2022/07/06 04:38:15;;;;;;;7.68;6.10;;;;;;;9.99;100.00;102519.41;5008911;28;20548;-61
2022/07/06 04:40:40;;;;;;;8.43;7.15;;;;;;;10.00;100.00;102519.50;5010502;28;20041;-60
2022/07/06 04:43:06;;;;;;;6.75;6.03;;;;;;;10.04;100.00;102520.56;5006311;28;20623;-60
2022/07/06 04:45:31;;;;;;;8.60;6.93;;;;;;;10.10;100.00;102515.78;5011541;28;20032;-60
2022/07/06 04:47:57;;;;;;;8.45;6.53;;;;;;;10.18;100.00;102524.03;5013016;28;20116;-61
2022/07/06 04:50:22;;;;;;;7.10;6.40;;;;;;;10.28;100.00;102521.19;5006652;28;20394;-60
2022/07/06 04:52:48;;;;;;;7.10;6.28;;;;;;;10.36;100.00;102520.75;5006125;28;20058;-61
2022/07/06 04:55:14;;;;;;;9.40;6.00;;;;;;;10.47;100.00;102532.63;5007031;28;20032;-61
2022/07/06 04:57:40;;;;;;;7.45;6.75;;;;;;;10.56;100.00;102528.03;5007152;28;20454;-60
2022/07/06 05:00:06;;;;;;;8.88;6.22;;;;;;;10.66;100.00;102524.31;5007123;28;20038;-61
2022/07/06 05:02:32;;;;;;;9.00;6.30;;;;;;;10.77;100.00;102521.44;5021780;28;20034;-60
2022/07/06 05:04:57;;;;;;;7.05;6.22;;;;;;;10.88;100.00;102528.13;5020020;28;20476;-61
2022/07/06 05:07:22;;;;;;;8.43;5.93;;;;;;;10.99;100.00;102523.56;5005961;28;20524;-60
2022/07/06 05:09:48;;;;;;;7.18;6.20;;;;;;;11.10;100.00;102531.06;5014921;28;20033;-60
2022/07/06 05:12:13;;;;;;;8.75;5.40;;;;;;;11.19;100.00;102531.56;5016825;28;20474;-60
2022/07/06 05:14:38;;;;;;;6.22;5.22;;;;;;;11.30;100.00;102532.19;5008323;28;20022;-61
2022/07/06 05:17:04;;;;;;;11.95;6.03;;;;;;;11.39;100.00;102535.31;5006739;28;20041;-60
2022/07/06 05:19:29;;;;;;;7.75;5.90;;;;;;;11.46;100.00;102535.66;5021120;28;20067;-60
2022/07/06 05:21:54;;;;;;;12.23;6.28;;;;;;;11.49;100.00;102547.09;5011864;28;20126;-61
2022/07/06 05:24:20;;;;;;;6.38;5.75;;;;;;;11.49;100.00;102548.81;5025313;28;20021;-60
2022/07/06 05:26:45;;;;;;;6.75;6.05;;;;;;;11.47;100.00;102540.94;5023472;28;20388;-60
2022/07/06 05:29:11;;;;;;;8.43;5.63;;;;;;;11.50;100.00;102548.88;5023788;28;20033;-61
2022/07/06 05:31:36;;;;;;;6.95;6.03;;;;;;;11.54;100.00;102549.94;5025397;28;20485;-60
2022/07/06 05:34:01;;;;;;;6.07;5.47;;;;;;;11.57;100.00;102544.91;5017626;28;20032;-60
2022/07/06 05:36:27;;;;;;;6.85;5.85;;;;;;;11.60;100.00;102541.59;5006273;28;20186;-59
2022/07/06 05:38:52;;;;;;;11.70;5.40;;;;;;;11.65;100.00;102542.75;5006133;28;20498;-61
2022/07/06 05:41:17;;;;;;;6.57;5.18;;;;;;;11.75;100.00;102541.53;5007151;28;20034;-61
2022/07/06 05:43:42;;;;;;;7.18;5.60;;;;;;;11.89;100.00;102537.13;5015645;28;20490;-61
2022/07/06 05:46:08;;;;;;;6.53;5.55;;;;;;;12.01;100.00;102532.56;5020112;28;20136;-60
2022/07/06 05:51:17;;;;;;;7.25;5.10;;;;;;;12.29;100.00;102545.22;5006714;28;20583;-61
2022/07/06 05:53:42;;;;;;;5.28;4.57;;;;;;;12.44;100.00;102550.34;5008554;28;20080;-60
2022/07/06 05:56:08;;;;;;;5.18;4.40;;;;;;;12.61;100.00;102552.09;5005393;28;20057;-61
2022/07/06 05:58:34;;;;;;;5.15;4.35;;;;;;;12.81;100.00;102546.13;5006319;28;20029;-61
2022/07/06 06:00:59;;;;;;;4.72;4.22;;;;;;;13.03;100.00;102549.78;5009029;28;20017;-61
2022/07/06 06:03:24;;;;;;;5.85;3.78;;;;;;;13.26;100.00;102557.84;5020330;28;20483;-61
2022/07/06 06:05:50;;;;;;;6.28;4.22;;;;;;;13.41;99.61;102555.06;5028240;28;20469;-60
2022/07/06 06:08:15;;;;;;;6.10;3.72;;;;;;;13.51;97.75;102553.81;5027631;28;20637;-61
2022/07/06 06:10:41;;;;;;;6.78;4.20;;;;;;;13.63;96.73;102554.41;5022204;28;20036;-60
2022/07/06 06:13:06;;;;;;;3.90;3.42;;;;;;;13.79;96.70;102555.13;5020548;28;20029;-61
2022/07/06 06:15:31;;;;;;;2.78;2.35;;;;;;;13.96;96.63;102552.41;5023752;28;20021;-61
2022/07/06 06:17:57;;;;;;;3.92;2.80;;;;;;;14.14;96.73;102550.59;5009115;28;20113;-61
2022/07/06 06:20:22;;;;;;;3.22;2.80;;;;;;;14.35;94.06;102560.22;5016251;28;20037;-61
2022/07/06 06:22:56;;;;;;;3.33;2.20;;;;;;;14.56;92.72;102561.97;5015211;28;20121;-60
2022/07/06 06:25:28;;;;;;;4.13;1.80;;;;;;;14.73;92.78;102551.34;5013369;28;20108;-61
2022/07/06 06:27:54;;;;;;;2.85;1.70;;;;;;;14.92;92.12;102552.13;5025908;28;20455;-61
2022/07/06 06:30:19;;;;;;;1.33;1.08;;;;;;;15.10;91.13;102549.41;5012986;28;20794;-60
2022/07/06 06:32:44;;;;;;;2.45;2.00;;;;;;;15.23;89.21;102554.28;5020461;28;20079;-61
2022/07/06 06:35:10;;;;;;;2.22;1.10;;;;;;;15.32;87.76;102547.66;5026700;28;20040;-60
2022/07/06 06:37:35;;;;;;;2.70;1.25;;;;;;;15.38;88.08;102547.88;5029663;28;20025;-61
2022/07/06 06:40:01;;;;;;;1.30;1.00;;;;;;;15.42;88.45;102552.41;5027880;28;20041;-60
2022/07/06 06:42:27;;;;;;;2.88;1.17;;;;;;;15.44;88.33;102555.06;5020849;28;20025;-61
2022/07/06 06:44:52;;;;;;;4.50;1.55;;;;;;;15.46;86.90;102556.03;5015805;28;20025;-61
2022/07/06 06:47:19;;;;;;;1.95;0.90;;;;;;;15.46;86.31;102558.63;5011971;28;20656;-60
2022/07/06 06:49:44;;;;;;;2.13;1.10;;;;;;;15.45;84.53;102562.09;5009222;28;20025;-61
2022/07/06 06:52:09;;;;;;;2.15;0.98;;;;;;;15.46;84.58;102553.41;5012448;28;20022;-60
2022/07/06 06:54:35;;;;;;;1.10;0.98;;;;;;;15.48;85.95;102562.19;5027336;28;20017;-61
2022/07/06 06:57:00;;;;;;;3.20;0.82;;;;;;;15.51;85.52;102562.31;5025111;28;20013;-59
2022/07/06 06:59:25;;;;;;;1.73;1.00;;;;;;;15.53;83.54;102564.97;5022625;28;20032;-61
2022/07/06 07:01:50;;;;;;;1.83;0.93;;;;;;;15.52;82.24;102564.09;5014952;28;20473;-61
2022/07/06 07:04:16;;;;;;;6.20;1.52;;;;;;;15.56;84.10;102571.22;5024401;28;20120;-61
2022/07/06 07:06:41;;;;;;;1.58;0.85;;;;;;;15.59;82.04;102560.91;5023380;28;20025;-61
2022/07/06 07:09:06;;;;;;;1.33;0.77;;;;;;;15.66;83.69;102568.97;5026739;28;20052;-61
2022/07/06 07:11:32;;;;;;;1.35;0.98;;;;;;;15.75;83.28;102565.81;5026857;28;20029;-61
2022/07/06 07:13:57;;;;;;;2.58;1.20;;;;;;;15.85;83.10;102563.59;5027394;28;20236;-60
2022/07/06 07:16:24;;;;;;;2.00;0.90;;;;;;;15.94;80.46;102570.00;5021817;28;20375;-60
2022/07/06 07:18:50;;;;;;;1.38;0.85;;;;;;;16.01;81.03;102568.56;5018541;28;20108;-61
2022/07/06 07:21:15;;;;;;;3.80;1.00;;;;;;;16.05;80.50;102565.19;5024126;28;20374;-61
2022/07/06 07:23:40;;;;;;;2.63;0.95;;;;;;;16.08;79.77;102575.78;5022458;28;20056;-61
2022/07/06 07:26:06;;;;;;;2.15;0.90;;;;;;;16.07;78.83;102563.53;5011049;28;20388;-61
2022/07/06 07:28:31;;;;;;;2.20;1.00;;;;;;;16.07;79.07;102568.75;5009610;28;20477;-61
2022/07/06 07:30:56;;;;;;;2.53;1.15;;;;;;;16.25;80.29;102571.16;5019617;28;20025;-61
2022/07/06 07:33:22;;;;;;;2.67;1.48;;;;;;;16.51;79.00;102572.94;5009396;28;20087;-60
2022/07/06 07:35:47;;;;;;;4.28;1.58;;;;;;;16.72;77.45;102564.91;5008321;28;20040;-60
2022/07/06 07:38:13;;;;;;;1.67;1.10;;;;;;;16.98;78.48;102577.97;5014383;28;20052;-60
2022/07/06 07:40:38;;;;;;;2.20;1.08;;;;;;;17.26;77.44;102573.69;5022295;28;20120;-61
2022/07/06 07:43:03;;;;;;;1.35;0.90;;;;;;;17.50;74.98;102583.13;5013038;28;20380;-61
2022/07/06 07:45:29;;;;;;;2.15;0.88;;;;;;;17.70;71.13;102577.59;5022131;28;20216;-60
2022/07/06 07:47:55;;;;;;;1.95;0.55;;;;;;;17.90;71.90;102572.06;5024121;28;20380;-61
2022/07/06 07:50:20;;;;;;;1.02;0.60;;;;;;;18.13;71.28;102574.47;5022606;28;20022;-62
2022/07/06 07:52:45;;;;;;;0.95;0.47;;;;;;;18.33;68.00;102571.53;5025455;28;20040;-60
2022/07/06 07:55:11;;;;;;;0.93;0.52;;;;;;;18.44;66.35;102567.44;5022302;28;20609;-61
2022/07/06 07:57:37;;;;;;;2.22;0.50;;;;;;;18.59;66.85;102566.97;5022479;28;20045;-62
2022/07/06 08:00:04;;;;;;;0.55;0.28;;;;;;;18.70;66.06;102577.75;5017954;28;20083;-60
2022/07/06 08:02:29;;;;;;;1.13;0.45;;;;;;;18.82;65.01;102571.03;5013948;28;20014;-61
2022/07/06 08:04:55;;;;;;;1.95;0.38;;;;;;;18.95;65.27;102556.47;5012138;28;20022;-59
2022/07/06 08:07:20;;;;;;;2.20;0.50;;;;;;;19.07;64.94;102563.75;5007691;28;20127;-61
2022/07/06 08:09:45;;;;;;;1.30;0.32;;;;;;;19.22;63.95;102565.00;5016721;28;20392;-60
2022/07/06 08:12:10;;;;;;;1.67;0.43;;;;;;;19.35;63.20;102553.03;5007292;28;20026;-61
2022/07/06 08:14:37;;;;;;;1.40;0.40;;;;;;;19.47;61.71;102555.03;5007479;28;20034;-61
2022/07/06 08:17:02;;;;;;;0.85;0.40;;;;;;;19.63;61.10;102551.88;5014584;28;20102;-61
2022/07/06 08:19:28;;;;;;;0.80;0.50;;;;;;;19.77;61.63;102544.28;5023287;28;20817;-60
2022/07/06 08:21:53;;;;;;;1.73;0.50;;;;;;;19.92;60.14;102548.97;5007653;28;20220;-61
2022/07/06 08:24:19;;;;;;;1.63;0.47;;;;;;;20.06;60.60;102545.75;5009482;28;20025;-61
2022/07/06 08:26:44;;;;;;;2.55;0.50;;;;;;;20.25;60.26;102551.38;5010506;28;20025;-60
2022/07/06 08:29:09;;;;;;;2.95;0.80;;;;;;;20.33;58.20;102549.75;5025036;28;20440;-61
2022/07/06 08:31:34;;;;;;;2.03;1.15;;;;;;;20.54;58.88;102548.38;5024325;28;20339;-60
2022/07/06 08:34:01;;;;;;;1.77;0.60;;;;;;;20.55;57.77;102550.13;5011825;28;20497;-61
2022/07/06 08:36:27;;;;;;;1.90;0.60;;;;;;;20.46;57.40;102542.06;5016467;28;20029;-61
2022/07/06 08:38:54;;;;;;;1.63;0.52;;;;;;;20.66;59.19;102546.78;5017481;28;20054;-61
2022/07/06 08:41:22;;;;;;;2.75;0.80;;;;;;;20.76;56.58;102543.44;5021019;28;20064;-61
2022/07/06 08:43:49;;;;;;;2.65;0.90;;;;;;;20.78;56.34;102552.28;5018621;28;20036;-61
2022/07/06 08:46:14;;;;;;;4.07;0.55;;;;;;;20.79;56.34;102538.25;5014756;28;20030;-61
2022/07/06 08:48:40;;;;;;;1.20;0.40;;;;;;;20.90;56.74;102543.69;5016077;28;20435;-61
2022/07/06 08:51:06;;;;;;;0.85;0.47;;;;;;;20.81;57.30;102541.81;5013237;28;20037;-60
2022/07/06 08:53:32;;;;;;;1.05;0.43;;;;;;;20.63;55.68;102547.66;5008450;28;20034;-61
2022/07/06 08:55:58;;;;;;;2.30;0.43;;;;;;;20.36;57.46;102538.41;5011395;28;20025;-61
2022/07/06 08:58:28;;;;;;;1.17;0.60;;;;;;;20.01;55.33;102531.59;5014593;28;20539;-60
2022/07/06 09:00:54;;;;;;;1.95;0.63;;;;;;;19.65;57.81;102533.50;5006846;28;20041;-60
2022/07/06 09:03:20;;;;;;;1.17;0.50;;;;;;;19.54;59.28;102530.66;5013590;28;20354;-61
2022/07/06 09:05:46;;;;;;;1.52;0.63;;;;;;;19.59;61.21;102536.03;5026547;28;20048;-60
2022/07/06 09:08:12;;;;;;;0.73;0.30;;;;;;;19.86;59.34;102538.31;5011961;28;20086;-60
2022/07/06 09:10:37;;;;;;;1.70;0.55;;;;;;;20.14;57.33;102536.28;5023161;28;20013;-61
2022/07/06 09:13:08;;;;;;;1.08;0.60;;;;;;;20.29;58.64;102526.91;5024079;28;20029;-60
2022/07/06 09:15:35;;;;;;;1.30;0.38;;;;;;;20.34;57.31;102535.75;5017360;28;20025;-61
2022/07/06 09:18:02;;;;;;;1.40;0.73;;;;;;;20.24;56.69;102533.78;5018453;28;20313;-61
2022/07/06 09:20:28;;;;;;;1.80;0.52;;;;;;;20.06;56.18;102537.84;5023467;28;20036;-61
2022/07/06 09:22:59;;;;;;;0.70;0.40;;;;;;;20.06;58.40;102537.00;5025513;28;20563;-61
2022/07/06 09:25:25;;;;;;;0.55;0.40;;;;;;;20.14;54.74;102538.91;5011660;28;20080;-61
2022/07/06 09:27:54;;;;;;;1.05;0.50;;;;;;;20.32;55.97;102539.19;5023904;28;20071;-60
2022/07/06 09:30:21;;;;;;;3.35;0.55;;;;;;;20.47;54.82;102530.69;5018007;28;20406;-60
2022/07/06 09:32:52;;;;;;;3.03;0.50;;;;;;;20.69;54.43;102541.56;5007903;28;20021;-61
2022/07/06 09:35:24;;;;;;;2.03;0.80;;;;;;;20.85;54.49;102543.59;5008187;28;20538;-61
2022/07/06 09:38:11;;;;;;;1.67;0.40;;;;;;;20.84;54.40;102544.47;5015151;28;20022;-61
2022/07/06 09:40:44;;;;;;;1.42;0.45;;;;;;;20.69;55.08;102553.00;5011386;28;20125;-60
2022/07/06 09:43:11;;;;;;;1.75;0.55;;;;;;;20.50;52.14;102546.53;5017664;28;20504;-60
2022/07/06 09:45:41;;;;;;;1.83;0.50;;;;;;;20.38;53.57;102542.81;5009206;28;20030;-60
2022/07/06 09:48:15;;;;;;;2.38;0.50;;;;;;;20.47;54.19;102543.88;5009622;28;20026;-61
2022/07/06 09:50:45;;;;;;;2.15;0.50;;;;;;;20.60;53.96;102542.31;5008452;28;20044;-61
2022/07/06 09:53:12;;;;;;;1.33;0.60;;;;;;;20.61;53.39;102545.00;5008488;28;20660;-62
2022/07/06 09:55:37;;;;;;;2.25;0.47;;;;;;;20.61;53.35;102545.00;5008806;28;20088;-61
2022/07/06 09:58:04;;;;;;;2.58;0.50;;;;;;;20.54;54.36;102548.38;5010955;28;20572;-61
2022/07/06 10:00:29;;;;;;;1.55;0.30;;;;;;;20.36;54.44;102544.53;5007145;28;20033;-61
2022/07/06 10:02:55;;;;;;;1.00;0.30;;;;;;;20.24;53.64;102545.22;5007943;28;20022;-61
2022/07/06 10:05:26;;;;;;;2.78;0.50;;;;;;;20.11;54.05;102544.09;5017825;28;20053;-61
2022/07/06 10:07:55;;;;;;;2.63;0.40;;;;;;;20.07;53.42;102555.44;5028030;28;20400;-59
2022/07/06 10:10:23;;;;;;;0.98;0.38;;;;;;;20.00;52.86;102548.25;5027969;28;20377;-61
2022/07/06 10:12:50;;;;;;;1.38;0.30;;;;;;;19.94;53.04;102545.47;5028068;28;20030;-61
2022/07/06 10:15:16;;;;;;;3.55;0.50;;;;;;;19.96;54.66;102549.91;5029271;28;20033;-61
2022/07/06 10:17:42;;;;;;;1.95;0.47;;;;;;;19.98;53.70;102557.84;5029866;28;20024;-61
2022/07/06 10:20:08;;;;;;;2.22;0.45;;;;;;;20.07;54.59;102559.78;5023624;28;20033;-61
2022/07/06 10:22:34;;;;;;;1.75;0.35;;;;;;;20.11;51.97;102554.63;5021171;28;20108;-61
2022/07/06 10:25:02;;;;;;;1.58;0.38;;;;;;;20.20;52.61;102553.03;5010049;28;20029;-60
2022/07/06 10:27:28;;;;;;;1.52;0.60;;;;;;;20.23;55.41;102555.72;5016476;28;20034;-61
2022/07/06 10:29:53;;;;;;;2.75;0.45;;;;;;;20.23;53.62;102558.34;5008890;28;20033;-61
2022/07/06 10:32:21;;;;;;;1.52;0.50;;;;;;;20.20;55.12;102558.28;5009797;28;20010;-60
2022/07/06 10:34:47;;;;;;;2.30;0.40;;;;;;;20.19;53.89;102551.25;5009592;28;20071;-61
2022/07/06 10:37:26;;;;;;;0.75;0.40;;;;;;;20.18;52.40;102550.38;5009202;28;20025;-61
2022/07/06 10:42:51;;;;;;;1.40;0.65;;;;;;;20.07;51.49;102547.53;5009328;28;20619;-61
2022/07/06 10:45:37;;;;;;;;;;;;;;;20.10;52.73;102546.69;5009885;28;20096;-61
2022/07/06 10:48:11;;;;;;;1.05;0.40;;;;;;;20.25;52.53;102548.75;5012000;28;19967;-61
2022/07/06 10:50:40;;;;;;;1.33;0.38;;;;;;;20.32;50.84;102557.63;5008058;28;20366;-61
2022/07/06 10:53:13;;;;;;;0.60;0.30;;;;;;;20.42;51.23;102553.44;5008569;28;20516;-60
2022/07/06 10:55:51;;;;;;;1.80;0.45;;;;;;;20.33;50.48;102549.75;5009125;28;20025;-61
2022/07/06 10:58:46;;;;;;;1.90;0.38;;;;;;;20.19;49.92;102548.59;5010298;28;20084;-61
2022/07/06 11:01:13;;;;;;;3.08;0.52;;;;;;;20.18;51.20;102544.22;5012966;28;20568;-61
2022/07/06 11:03:41;;;;;;;1.65;0.30;;;;;;;20.21;52.94;102544.25;5019417;28;20057;-61
2022/07/06 11:06:22;;;;;;;0.93;0.50;;;;;;;20.27;53.34;102541.75;5027470;28;20038;-60
2022/07/06 11:08:48;;;;;;;1.83;0.40;;;;;;;20.28;53.04;102535.63;5027050;28;20145;-60
2022/07/06 11:11:30;;;;;;;0.98;0.40;;;;;;;20.30;52.81;102541.81;5017331;28;20075;-61
2022/07/06 11:14:03;;;;;;;0.65;0.20;;;;;;;20.27;53.07;102536.50;5023723;28;20083;-61
2022/07/06 11:16:36;;;;;;;1.13;0.45;;;;;;;20.34;50.49;102546.28;5022147;28;20048;-61
2022/07/06 11:19:01;;;;;;;1.60;0.43;;;;;;;20.45;52.67;102537.69;5021196;28;20108;-60
2022/07/06 11:21:59;;;;;;;1.70;0.43;;;;;;;20.50;50.31;102547.44;5010784;28;20133;-61
2022/07/06 11:24:29;;;;;;;1.85;0.50;;;;;;;20.42;48.51;102543.75;5013676;28;20041;-61
2022/07/06 11:26:57;;;;;;;1.85;0.40;;;;;;;20.42;50.08;102533.25;5009745;28;20036;-61